createdAt,value
2019-02-19T00:01:33.506Z,100019.00
2019-02-19T00:04:03.209Z,100030.00
2019-02-19T00:06:33.209Z,100045.00
2019-02-19T00:09:06.407Z,100031.00
2019-02-19T00:11:36.113Z,100024.00
2019-02-19T00:14:05.800Z,100036.00
2019-02-19T00:16:35.670Z,100033.00
2019-02-19T00:19:05.956Z,100038.00
2019-02-19T00:21:35.633Z,100034.00
2019-02-19T00:24:05.318Z,100056.00
2019-02-19T00:26:35.069Z,100050.00
2019-02-19T00:29:04.744Z,100051.00
2019-02-19T00:31:34.405Z,100062.00
2019-02-19T00:34:04.118Z,100067.00
2019-02-19T00:36:33.843Z,100054.00
2019-02-19T00:39:04.573Z,100060.00
2019-02-19T00:41:34.532Z,100064.00
2019-02-19T00:44:04.282Z,100068.00
2019-02-19T00:46:33.930Z,100065.00
2019-02-19T00:49:03.798Z,100060.00
2019-02-19T00:51:33.468Z,100061.00
2019-02-19T00:54:04.020Z,100067.00
2019-02-19T00:56:33.746Z,100073.00
2019-02-19T00:59:03.484Z,100075.00
2019-02-19T01:01:34.166Z,100068.00
2019-02-19T01:04:03.936Z,100074.00
2019-02-19T01:06:33.588Z,100068.00
2019-02-19T01:09:04.827Z,100065.00
2019-02-19T01:11:34.534Z,100082.00
2019-02-19T01:14:04.185Z,100083.00
2019-02-19T01:16:33.861Z,100087.00
2019-02-19T01:19:03.549Z,100088.00
2019-02-19T01:21:33.272Z,100084.00
2019-02-19T01:24:02.942Z,100084.00
2019-02-19T01:26:32.689Z,100075.00
2019-02-19T01:29:02.356Z,100081.00
2019-02-19T01:31:32.011Z,100074.00
2019-02-19T01:34:01.821Z,100075.00
2019-02-19T01:36:31.489Z,100074.00
2019-02-19T01:39:01.211Z,100078.00
2019-02-19T01:41:30.999Z,100070.00
2019-02-19T01:44:00.742Z,100064.00
2019-02-19T01:46:30.390Z,100070.00
2019-02-19T01:49:00.162Z,100068.00
2019-02-19T01:51:29.819Z,100080.00
2019-02-19T01:53:59.851Z,100069.00
2019-02-19T01:56:29.832Z,100076.00
2019-02-19T01:58:59.846Z,100077.00
2019-02-19T02:01:29.520Z,100070.00
2019-02-19T02:03:59.207Z,100080.00
2019-02-19T02:06:28.865Z,100078.00
2019-02-19T02:08:58.624Z,100086.00
2019-02-19T02:11:28.365Z,100095.00
2019-02-19T02:13:59.236Z,100095.00
2019-02-19T02:16:28.993Z,100095.00
2019-02-19T02:18:58.660Z,100088.00
2019-02-19T02:21:29.334Z,100095.00
2019-02-19T02:23:59.593Z,100091.00
2019-02-19T02:26:29.370Z,100085.00
2019-02-19T02:28:59.034Z,100093.00
2019-02-19T02:31:28.717Z,100094.00
2019-02-19T02:33:58.372Z,100094.00
2019-02-19T02:36:28.047Z,100096.00
2019-02-19T02:38:57.739Z,100092.00
2019-02-19T02:41:27.429Z,100104.00
2019-02-19T02:43:57.151Z,100101.00
2019-02-19T02:46:26.854Z,100103.00
2019-02-19T02:49:10.123Z,100105.00
2019-02-19T02:51:39.818Z,100105.00
2019-02-19T02:54:09.484Z,100105.00
2019-02-19T02:56:39.150Z,100113.00
2019-02-19T02:59:08.850Z,100115.00
2019-02-19T03:01:38.515Z,100124.00
2019-02-19T03:04:08.245Z,100119.00
2019-02-19T03:06:39.586Z,100118.00
2019-02-19T03:09:09.248Z,100122.00
2019-02-19T03:11:38.971Z,100126.00
2019-02-19T03:14:08.676Z,100120.00
2019-02-19T03:16:38.402Z,100112.00
2019-02-19T03:19:08.075Z,100111.00
2019-02-19T03:21:37.842Z,100104.00
2019-02-19T03:24:07.508Z,100102.00
2019-02-19T03:26:37.185Z,100102.00
2019-02-19T03:29:19.793Z,100100.00
2019-02-19T03:31:49.460Z,100093.00
2019-02-19T03:34:38.423Z,100101.00
2019-02-19T03:37:20.870Z,100100.00
2019-02-19T03:39:50.768Z,100097.00
2019-02-19T03:42:22.109Z,100096.00
2019-02-19T03:44:51.976Z,100094.00
2019-02-19T03:47:23.166Z,100103.00
2019-02-19T03:49:52.845Z,100112.00
2019-02-19T03:52:22.502Z,100096.00
2019-02-19T03:54:52.907Z,100098.00
2019-02-19T03:57:22.569Z,100101.00
2019-02-19T03:59:52.232Z,100108.00
2019-02-19T04:02:22.212Z,100103.00
2019-02-19T04:04:51.882Z,100111.00
2019-02-19T04:07:22.672Z,100123.00
2019-02-19T04:09:52.373Z,100114.00
2019-02-19T04:12:22.029Z,100119.00
2019-02-19T04:14:51.735Z,100122.00
2019-02-19T04:17:21.417Z,100129.00
2019-02-19T04:19:51.091Z,100124.00
2019-02-19T04:22:20.756Z,100130.00
2019-02-19T04:24:50.532Z,100132.00
2019-02-19T04:27:20.188Z,100130.00
2019-02-19T04:29:49.849Z,100129.00
2019-02-19T04:32:19.539Z,100132.00
2019-02-19T04:34:49.212Z,100137.00
2019-02-19T04:37:18.940Z,100143.00
2019-02-19T04:39:48.634Z,100146.00
2019-02-19T04:42:18.357Z,100140.00
2019-02-19T04:44:49.565Z,100144.00
2019-02-19T04:47:19.246Z,100144.00
2019-02-19T04:49:48.911Z,100144.00
2019-02-19T04:52:18.579Z,100141.00
2019-02-19T04:54:48.263Z,100139.00
2019-02-19T04:57:19.242Z,100138.00
2019-02-19T04:59:48.908Z,100147.00
2019-02-19T05:02:18.603Z,100152.00
2019-02-19T05:04:50.574Z,100149.00
2019-02-19T05:07:20.421Z,100152.00
2019-02-19T05:09:50.157Z,100155.00
2019-02-19T05:12:19.790Z,100157.00
2019-02-19T05:14:49.467Z,100157.00
2019-02-19T05:17:19.163Z,100158.00
2019-02-19T05:19:48.833Z,100156.00
2019-02-19T05:22:18.489Z,100150.00
2019-02-19T05:24:48.175Z,100154.00
2019-02-19T05:27:17.844Z,100157.00
2019-02-19T05:29:47.780Z,100163.00
2019-02-19T05:32:17.486Z,100159.00
2019-02-19T05:34:47.248Z,100170.00
2019-02-19T05:37:17.515Z,100161.00
2019-02-19T05:39:47.255Z,100173.00
2019-02-19T05:42:17.286Z,100164.00
2019-02-19T05:44:48.206Z,100183.00
2019-02-19T05:47:19.375Z,100181.00
2019-02-19T05:49:49.057Z,100187.00
2019-02-19T05:52:20.904Z,100181.00
2019-02-19T05:54:51.312Z,100178.00
2019-02-19T05:57:21.035Z,100186.00
2019-02-19T05:59:52.243Z,100194.00
2019-02-19T06:02:23.170Z,100187.00
2019-02-19T06:04:52.928Z,100185.00
2019-02-19T06:07:23.726Z,100187.00
2019-02-19T06:09:54.547Z,100189.00
2019-02-19T06:12:24.268Z,100193.00
2019-02-19T06:14:53.931Z,100194.00
2019-02-19T06:17:25.113Z,100204.00
2019-02-19T06:19:54.704Z,100205.00
2019-02-19T06:22:31.848Z,100197.00
2019-02-19T06:25:01.721Z,100211.00
2019-02-19T06:27:31.382Z,100206.00
2019-02-19T06:30:01.081Z,100196.00
2019-02-19T06:32:31.120Z,100195.00
2019-02-19T06:35:00.797Z,100195.00
2019-02-19T06:37:30.498Z,100208.00
2019-02-19T06:40:00.319Z,100218.00
2019-02-19T06:42:30.130Z,100220.00
2019-02-19T06:45:00.906Z,100217.00
2019-02-19T06:47:30.818Z,100219.00
2019-02-19T06:50:01.500Z,100215.00
2019-02-19T06:52:31.229Z,100223.00
2019-02-19T06:55:00.877Z,100241.00
2019-02-19T06:57:30.561Z,100239.00
2019-02-19T07:00:01.191Z,100236.00
2019-02-19T07:02:32.798Z,100245.00
2019-02-19T07:05:02.549Z,100256.00
2019-02-19T07:07:33.555Z,100245.00
2019-02-19T07:10:03.727Z,100242.00
2019-02-19T07:12:33.398Z,100239.00
2019-02-19T07:15:03.145Z,100252.00
2019-02-19T07:17:32.812Z,100253.00
2019-02-19T07:20:02.464Z,100260.00
2019-02-19T07:22:32.173Z,100270.00
2019-02-19T07:25:01.817Z,100268.00
2019-02-19T07:27:33.143Z,100278.00
2019-02-19T07:30:04.111Z,100261.00
2019-02-19T07:32:33.772Z,100263.00
2019-02-19T07:35:03.730Z,100263.00
2019-02-19T07:37:34.322Z,100276.00
2019-02-19T07:40:06.550Z,100280.00
2019-02-19T07:42:37.191Z,100276.00
2019-02-19T07:45:11.867Z,100273.00
2019-02-19T07:47:41.532Z,100291.00
2019-02-19T07:50:12.804Z,100288.00
2019-02-19T07:52:42.513Z,100284.00
2019-02-19T07:55:12.856Z,100289.00
2019-02-19T07:57:42.969Z,100288.00
2019-02-19T08:00:14.766Z,100286.00
2019-02-19T08:02:44.447Z,100291.00
2019-02-19T08:05:14.272Z,100289.00
2019-02-19T08:07:43.941Z,100289.00
2019-02-19T08:10:13.997Z,100283.00
2019-02-19T08:12:43.684Z,100294.00
2019-02-19T08:15:13.455Z,100303.00
2019-02-19T08:17:43.139Z,100298.00
2019-02-19T08:20:15.838Z,100302.00
2019-02-19T08:22:44.195Z,100304.00
2019-02-19T08:25:13.974Z,100233.00
2019-02-19T08:27:43.711Z,100303.00
2019-02-19T08:30:13.397Z,100290.00
2019-02-19T08:32:43.077Z,100314.00
2019-02-19T08:35:12.825Z,100307.00
2019-02-19T08:37:43.482Z,100311.00
2019-02-19T08:40:13.169Z,100314.00
2019-02-19T08:42:47.168Z,100319.00
2019-02-19T08:45:16.904Z,100322.00
2019-02-19T08:47:46.601Z,100311.00
2019-02-19T08:50:16.274Z,100316.00
2019-02-19T08:52:45.962Z,100317.00
2019-02-19T08:55:15.651Z,100314.00
2019-02-19T08:57:45.331Z,100312.00
2019-02-19T09:00:15.319Z,100320.00
2019-02-19T09:02:45.012Z,100333.00
2019-02-19T09:05:14.682Z,100332.00
2019-02-19T09:07:44.351Z,100331.00
2019-02-19T09:10:15.253Z,100334.00
2019-02-19T09:12:44.928Z,100320.00
2019-02-19T09:15:15.574Z,100318.00
2019-02-19T09:17:51.642Z,100320.00
2019-02-19T09:20:21.738Z,100312.00
2019-02-19T09:22:51.383Z,100317.00
2019-02-19T09:25:21.053Z,100326.00
2019-02-19T09:27:50.761Z,100330.00
2019-02-19T09:30:20.434Z,100338.00
2019-02-19T09:32:50.101Z,100335.00
2019-02-19T09:35:19.825Z,100337.00
2019-02-19T09:37:49.493Z,100338.00
2019-02-19T09:40:19.230Z,100325.00
2019-02-19T09:42:51.599Z,100339.00
2019-02-19T09:45:21.273Z,100349.00
2019-02-19T09:47:50.961Z,100349.00
2019-02-19T09:50:20.677Z,100358.00
2019-02-19T09:52:58.008Z,100359.00
2019-02-19T09:55:21.882Z,100359.00
2019-02-19T09:57:51.587Z,100358.00
2019-02-19T10:00:21.324Z,100364.00
2019-02-19T10:02:50.991Z,100364.00
2019-02-19T10:05:20.691Z,100365.00
2019-02-19T10:07:51.988Z,100367.00
2019-02-19T10:10:23.225Z,100367.00
2019-02-19T10:12:54.409Z,100371.00
2019-02-19T10:15:26.292Z,100365.00
2019-02-19T10:17:55.953Z,100367.00
2019-02-19T10:20:25.708Z,100367.00
2019-02-19T10:22:55.389Z,100360.00
2019-02-19T10:25:25.064Z,100367.00
2019-02-19T10:27:54.816Z,100376.00
2019-02-19T10:30:24.541Z,100380.00
2019-02-19T10:32:54.225Z,100377.00
2019-02-19T10:35:24.262Z,100376.00
2019-02-19T10:37:54.010Z,100369.00
2019-02-19T10:40:23.847Z,100373.00
2019-02-19T10:42:55.132Z,100367.00
2019-02-19T10:45:27.167Z,100369.00
2019-02-19T10:47:56.854Z,100374.00
2019-02-19T10:50:26.571Z,100373.00
2019-02-19T10:52:56.272Z,100365.00
2019-02-19T10:55:26.041Z,100368.00
2019-02-19T10:57:55.750Z,100375.00
2019-02-19T11:00:25.416Z,100364.00
2019-02-19T11:02:55.079Z,100370.00
2019-02-19T11:05:24.905Z,100362.00
2019-02-19T11:07:54.607Z,100365.00
2019-02-19T11:10:24.264Z,100355.00
2019-02-19T11:12:53.961Z,100362.00
2019-02-19T11:15:23.452Z,100358.00
2019-02-19T11:17:53.206Z,100357.00
2019-02-19T11:20:25.114Z,100374.00
2019-02-19T11:22:54.854Z,100372.00
2019-02-19T11:25:26.077Z,100365.00
2019-02-19T11:27:55.852Z,100368.00
2019-02-19T11:30:25.527Z,100369.00
2019-02-19T11:32:55.192Z,100362.00
2019-02-19T11:35:24.896Z,100363.00
2019-02-19T11:37:54.726Z,100355.00
2019-02-19T11:40:24.403Z,100359.00
2019-02-19T11:42:54.077Z,100364.00
2019-02-19T11:45:23.876Z,100359.00
2019-02-19T11:47:55.096Z,100347.00
2019-02-19T11:50:24.801Z,100343.00
2019-02-19T11:52:54.524Z,100346.00
2019-02-19T11:55:25.178Z,100356.00
2019-02-19T11:57:56.253Z,100350.00
2019-02-19T12:00:31.467Z,100346.00
2019-02-19T12:03:01.287Z,100348.00
2019-02-19T12:05:31.037Z,100359.00
2019-02-19T12:08:01.161Z,100358.00
2019-02-19T12:10:33.020Z,100360.00
2019-02-19T12:13:03.050Z,100350.00
2019-02-19T12:15:35.228Z,100349.00
2019-02-19T12:18:04.221Z,100347.00
2019-02-19T12:20:33.977Z,100355.00
2019-02-19T12:23:03.741Z,100356.00
2019-02-19T12:25:33.400Z,100345.00
2019-02-19T12:28:03.092Z,100352.00
2019-02-19T12:30:32.793Z,100351.00
2019-02-19T12:33:08.152Z,100343.00
2019-02-19T12:35:37.857Z,100341.00
2019-02-19T12:38:07.515Z,100351.00
2019-02-19T12:40:37.209Z,100273.00
2019-02-19T12:43:07.239Z,100337.00
2019-02-19T12:45:36.978Z,100340.00
2019-02-19T12:48:06.757Z,100334.00
2019-02-19T12:50:55.894Z,100338.00
2019-02-19T12:53:25.592Z,100326.00
2019-02-19T12:55:56.695Z,100325.00
2019-02-19T12:58:26.380Z,100321.00
2019-02-19T13:00:56.166Z,100321.00
2019-02-19T13:03:25.967Z,100323.00
2019-02-19T13:05:55.707Z,100322.00
2019-02-19T13:08:25.460Z,100321.00
2019-02-19T13:10:55.135Z,100324.00
2019-02-19T13:13:25.010Z,100325.00
2019-02-19T13:15:55.035Z,100319.00
2019-02-19T13:18:24.780Z,100321.00
2019-02-19T13:20:54.453Z,100324.00
2019-02-19T13:23:24.165Z,100323.00
2019-02-19T13:25:53.867Z,100317.00
2019-02-19T13:28:23.542Z,100320.00
2019-02-19T13:30:53.391Z,100309.00
2019-02-19T13:33:23.056Z,100319.00
2019-02-19T13:35:52.801Z,100325.00
2019-02-19T13:38:22.528Z,100317.00
2019-02-19T13:40:52.192Z,100322.00
2019-02-19T13:43:23.343Z,100314.00
2019-02-19T13:45:57.501Z,100319.00
2019-02-19T13:48:29.967Z,100318.00
2019-02-19T13:51:02.643Z,100326.00
2019-02-19T13:53:34.663Z,100316.00
2019-02-19T13:56:04.327Z,100319.00
2019-02-19T13:58:33.989Z,100322.00
2019-02-19T14:01:03.860Z,100320.00
2019-02-19T14:03:33.544Z,100311.00
2019-02-19T14:06:03.280Z,100317.00
2019-02-19T14:08:32.990Z,100310.00
2019-02-19T14:11:02.710Z,100319.00
2019-02-19T14:13:32.356Z,100305.00
2019-02-19T14:16:12.526Z,100313.00
2019-02-19T14:18:46.831Z,100309.00
2019-02-19T14:21:18.190Z,100295.00
2019-02-19T14:24:11.519Z,100303.00
2019-02-19T14:26:59.416Z,100304.00
2019-02-19T14:29:30.736Z,100314.00
2019-02-19T14:32:13.998Z,100300.00
2019-02-19T14:34:50.938Z,100305.00
2019-02-19T14:37:31.266Z,100298.00
2019-02-19T14:40:10.015Z,100308.00
2019-02-19T14:42:44.618Z,100302.00
2019-02-19T14:45:19.290Z,100311.00
2019-02-19T14:47:56.431Z,100302.00
2019-02-19T14:50:44.602Z,100302.00
2019-02-19T14:53:32.440Z,100302.00
2019-02-19T14:56:03.758Z,100303.00
2019-02-19T14:58:47.204Z,100301.00
2019-02-19T15:01:32.498Z,100293.00
2019-02-19T15:04:21.461Z,100287.00
2019-02-19T15:06:55.500Z,100294.00
2019-02-19T15:09:42.938Z,100293.00
2019-02-19T15:12:17.217Z,100289.00
2019-02-19T15:14:48.567Z,100291.00
2019-02-19T15:17:22.603Z,100290.00
2019-02-19T15:20:05.961Z,100295.00
2019-02-19T15:22:40.842Z,100290.00
2019-02-19T15:25:28.437Z,100280.00
2019-02-19T15:28:11.952Z,100283.00
2019-02-19T15:30:45.714Z,100274.00
2019-02-19T15:33:27.855Z,100271.00
2019-02-19T15:36:05.032Z,100276.00
2019-02-19T15:38:43.439Z,100263.00
2019-02-19T15:41:14.798Z,100273.00
2019-02-19T15:43:46.123Z,100264.00
2019-02-19T15:46:17.424Z,100275.00
2019-02-19T15:48:51.711Z,100276.00
2019-02-19T15:51:31.126Z,100275.00
2019-02-19T15:54:17.759Z,100260.00
2019-02-19T15:57:01.348Z,100266.00
2019-02-19T15:59:32.682Z,100268.00
2019-02-19T16:02:10.118Z,100258.00
2019-02-19T16:04:41.475Z,100257.00
2019-02-19T16:07:15.693Z,100265.00
2019-02-19T16:09:47.043Z,100251.00
2019-02-19T16:15:14.339Z,100258.00
2019-02-19T16:17:45.654Z,100238.00
2019-02-19T16:20:21.532Z,100247.00
2019-02-19T16:22:55.837Z,100236.00
2019-02-19T16:25:34.111Z,100257.00
2019-02-19T16:28:14.125Z,100242.00
2019-02-19T16:30:45.446Z,100236.00
2019-02-19T16:33:16.766Z,100233.00
2019-02-19T16:35:57.345Z,100231.00
2019-02-19T16:38:28.636Z,100225.00
2019-02-19T16:40:59.947Z,100226.00
2019-02-19T16:43:34.097Z,100233.00
2019-02-19T16:46:20.724Z,100220.00
2019-02-19T16:48:52.078Z,100232.00
2019-02-19T16:51:42.094Z,100221.00
2019-02-19T16:54:19.170Z,100231.00
2019-02-19T16:56:53.475Z,100223.00
2019-02-19T16:59:26.959Z,100230.00
2019-02-19T17:02:00.817Z,100241.00
2019-02-19T17:04:41.004Z,100225.00
2019-02-19T17:07:12.325Z,100238.00
2019-02-19T17:09:59.906Z,100236.00
2019-02-19T17:12:47.283Z,100228.00
2019-02-19T17:15:39.419Z,100231.00
2019-02-19T17:18:16.472Z,100231.00
2019-02-19T17:20:56.968Z,100238.00
2019-02-19T17:23:28.291Z,100236.00
2019-02-19T17:26:05.359Z,100231.00
2019-02-19T17:28:56.108Z,100236.00
2019-02-19T17:31:28.334Z,100246.00
2019-02-19T17:34:17.019Z,100242.00
2019-02-19T17:36:51.636Z,100239.00
2019-02-19T17:39:33.092Z,100236.00
2019-02-19T17:42:07.150Z,100241.00
2019-02-19T17:44:48.501Z,100252.00
2019-02-19T17:47:22.532Z,100238.00
2019-02-19T17:50:05.668Z,100252.00
2019-02-19T17:52:50.743Z,100250.00
2019-02-19T17:55:34.800Z,100244.00
2019-02-19T17:58:07.561Z,100241.00
2019-02-19T18:00:56.756Z,100246.00
2019-02-19T18:03:30.077Z,100243.00
2019-02-19T18:06:07.939Z,100246.00
2019-02-19T18:08:40.335Z,100246.00
2019-02-19T18:11:16.826Z,100249.00
2019-02-19T18:13:49.783Z,100250.00
2019-02-19T18:16:27.685Z,100248.00
2019-02-19T18:18:58.464Z,100261.00
2019-02-19T18:21:33.666Z,100256.00
2019-02-19T18:24:10.399Z,100256.00
2019-02-19T18:26:41.574Z,100267.00
2019-02-19T18:29:19.576Z,100262.00
2019-02-19T18:31:52.912Z,100257.00
2019-02-19T18:34:23.543Z,100260.00
2019-02-19T18:36:53.300Z,100257.00
2019-02-19T18:39:39.932Z,100264.00
2019-02-19T18:42:09.807Z,100250.00
2019-02-19T18:44:43.001Z,100256.00
2019-02-19T18:47:31.981Z,100249.00
2019-02-19T18:50:01.665Z,100258.00
2019-02-19T18:52:31.541Z,100264.00
2019-02-19T18:55:20.579Z,100255.00
2019-02-19T18:57:50.436Z,100260.00
2019-02-19T19:00:20.207Z,100258.00
2019-02-19T19:02:49.891Z,100263.00
2019-02-19T19:05:19.562Z,100260.00
2019-02-19T19:07:49.254Z,100261.00
2019-02-19T19:10:18.938Z,100255.00
2019-02-19T19:12:48.613Z,100251.00
2019-02-19T19:15:18.529Z,100254.00
2019-02-19T19:17:48.300Z,100247.00
2019-02-19T19:20:17.974Z,100257.00
2019-02-19T19:22:53.569Z,100232.00
2019-02-19T19:25:23.226Z,100252.00
2019-02-19T19:27:55.490Z,100245.00
2019-02-19T19:30:25.430Z,100248.00
2019-02-19T19:32:56.726Z,100238.00
2019-02-19T19:35:27.194Z,100243.00
2019-02-19T19:37:56.890Z,100242.00
2019-02-19T19:40:26.568Z,100237.00
2019-02-19T19:42:56.236Z,100235.00
2019-02-19T19:45:25.932Z,100234.00
2019-02-19T19:47:55.634Z,100236.00
2019-02-19T19:50:25.365Z,100243.00
2019-02-19T19:52:55.054Z,100239.00
2019-02-19T19:55:28.272Z,100248.00
2019-02-19T19:57:57.973Z,100250.00
2019-02-19T20:00:27.926Z,100243.00
2019-02-19T20:02:57.605Z,100244.00
2019-02-19T20:05:27.308Z,100242.00
2019-02-19T20:07:57.051Z,100245.00
2019-02-19T20:10:27.608Z,100239.00
2019-02-19T20:12:58.949Z,100243.00
2019-02-19T20:15:28.617Z,100242.00
2019-02-19T20:17:58.298Z,100243.00
2019-02-19T20:20:27.986Z,100241.00
2019-02-19T20:22:57.674Z,100242.00
2019-02-19T20:25:27.338Z,100243.00
2019-02-19T20:27:57.040Z,100249.00
2019-02-19T20:30:29.649Z,100244.00
2019-02-19T20:32:59.322Z,100234.00
2019-02-19T20:35:29.072Z,100240.00
2019-02-19T20:37:58.764Z,100248.00
2019-02-19T20:40:28.446Z,100243.00
2019-02-19T20:42:58.230Z,100240.00
2019-02-19T20:45:45.983Z,100238.00
2019-02-19T20:48:15.760Z,100244.00
2019-02-19T20:50:47.070Z,100229.00
2019-02-19T20:53:16.856Z,100236.00
2019-02-19T20:55:46.530Z,100235.00
2019-02-19T20:58:20.146Z,100237.00
2019-02-19T21:00:49.834Z,100236.00
2019-02-19T21:03:19.595Z,100235.00
2019-02-19T21:05:49.280Z,100235.00
2019-02-19T21:08:27.950Z,100239.00
2019-02-19T21:10:59.332Z,100242.00
2019-02-19T21:13:29.013Z,100237.00
2019-02-19T21:15:58.708Z,100238.00
2019-02-19T21:18:28.434Z,100243.00
2019-02-19T21:20:58.206Z,100241.00
2019-02-19T21:23:27.895Z,100235.00
2019-02-19T21:25:57.561Z,100235.00
2019-02-19T21:28:27.245Z,100236.00
2019-02-19T21:31:00.132Z,100237.00
2019-02-19T21:33:29.877Z,100235.00
2019-02-19T21:35:59.567Z,100233.00
2019-02-19T21:38:29.271Z,100234.00
2019-02-19T21:40:59.145Z,100233.00
2019-02-19T21:43:28.840Z,100231.00
2019-02-19T21:45:58.619Z,100234.00
2019-02-19T21:48:47.768Z,100231.00
2019-02-19T21:51:11.817Z,100239.00
2019-02-19T21:53:41.591Z,100231.00
2019-02-19T21:56:11.251Z,100233.00
2019-02-19T21:58:41.045Z,100232.00
2019-02-19T22:01:10.816Z,100236.00
2019-02-19T22:03:40.528Z,100234.00
2019-02-19T22:06:10.246Z,100240.00
2019-02-19T22:08:41.422Z,100238.00
2019-02-19T22:11:11.105Z,100238.00
2019-02-19T22:13:40.846Z,100234.00
2019-02-19T22:16:10.498Z,100241.00
2019-02-19T22:19:01.178Z,100239.00
2019-02-19T22:21:37.154Z,100243.00
2019-02-19T22:24:08.693Z,100245.00
2019-02-19T22:26:38.361Z,100246.00
2019-02-19T22:29:08.071Z,100246.00
2019-02-19T22:31:37.857Z,100239.00
2019-02-19T22:34:07.539Z,100254.00
2019-02-19T22:36:38.773Z,100245.00
2019-02-19T22:39:08.697Z,100248.00
2019-02-19T22:41:38.432Z,100247.00
2019-02-19T22:44:08.298Z,100239.00
2019-02-19T22:46:38.014Z,100241.00
2019-02-19T22:49:10.625Z,100237.00
2019-02-19T22:51:40.528Z,100240.00
2019-02-19T22:54:12.580Z,100233.00
2019-02-19T22:56:42.276Z,100233.00
2019-02-19T22:59:12.070Z,100220.00
2019-02-19T23:01:47.160Z,100225.00
2019-02-19T23:04:16.949Z,100216.00
2019-02-19T23:06:46.569Z,100213.00
2019-02-19T23:09:19.042Z,100221.00
2019-02-19T23:11:48.714Z,100211.00
2019-02-19T23:14:18.387Z,100221.00
2019-02-19T23:16:50.455Z,100212.00
2019-02-19T23:19:20.228Z,100212.00
2019-02-19T23:21:51.116Z,100209.00
2019-02-19T23:24:40.072Z,100210.00
2019-02-19T23:27:09.763Z,100203.00
2019-02-19T23:29:39.589Z,100218.00
2019-02-19T23:32:09.518Z,100206.00
2019-02-19T23:34:39.284Z,100217.00
2019-02-19T23:37:09.089Z,100206.00
2019-02-19T23:39:44.829Z,100207.00
2019-02-19T23:42:14.561Z,100219.00
2019-02-19T23:44:44.247Z,100211.00
2019-02-19T23:47:14.000Z,100209.00
2019-02-19T23:49:44.268Z,100212.00
2019-02-19T23:52:14.020Z,100216.00
2019-02-19T23:54:43.718Z,100207.00
2019-02-19T23:57:13.381Z,100206.00
2019-02-19T23:59:43.134Z,100202.00
